.
WxDataArchive / Data Records for 2007-09-15
2007-09-14 September 2007 2007-09-16

Data Records for Saturday, 15 September 2007

Time	Temp	Chill	HIndex	Humid	Dewpt	 Wind 	HiWind	WindDir	Rain 	Barom 
-----	----	-----	------	-----	-----	------	------	-------	-----	----- 
00:00	48.5	48.5	48.5	75	40.9	0	1	315	0.00	30.096 
00:05	48.3	48.3	48.3	74	40.4	0	2	315	0.00	30.098 
00:10	48.3	48.3	48.3	74	40.4	0	1	315	0.00	30.098 
00:15	48.2	48.2	48.2	74	40.3	0	0	---	0.00	30.099 
00:20	48.0	48.0	48.0	75	40.5	0	0	---	0.00	30.098 
00:25	47.7	47.7	47.7	75	40.2	0	0	---	0.00	30.100 
00:30	47.6	47.6	47.6	76	40.4	0	0	---	0.00	30.100 
00:35	47.3	47.3	47.3	76	40.1	0	0	---	0.00	30.104 
00:40	47.0	47.0	47.0	77	40.2	0	0	---	0.00	30.106 
00:45	46.7	46.7	46.7	78	40.2	0	0	---	0.00	30.107 
00:50	46.4	46.4	46.4	79	40.2	0	0	---	0.00	30.108 
00:55	46.2	46.2	46.2	79	40.1	0	0	---	0.00	30.109 
01:00	46.1	46.1	46.1	79	40.0	0	0	---	0.00	30.111 
01:05	46.1	46.1	46.1	79	40.0	0	0	---	0.00	30.112 
01:10	46.1	46.1	46.1	78	39.6	0	0	---	0.00	30.113 
01:15	46.1	46.1	46.1	79	40.0	0	0	---	0.00	30.114 
01:20	46.0	46.0	46.0	79	39.9	0	0	---	0.00	30.116 
01:25	45.8	45.8	45.8	79	39.7	0	0	---	0.00	30.117 
01:30	45.8	45.8	45.8	80	40.0	0	0	---	0.00	30.118 
01:35	45.7	45.7	45.7	80	39.9	0	0	---	0.00	30.123 
01:40	45.5	45.5	45.5	80	39.7	0	0	---	0.00	30.122 
01:45	45.2	45.2	45.2	80	39.4	0	0	---	0.00	30.125 
01:50	45.1	45.1	45.1	81	39.6	0	0	---	0.00	30.123 
01:55	44.8	44.8	44.8	81	39.3	0	0	---	0.00	30.124 
02:00	44.6	44.6	44.6	82	39.4	0	0	---	0.00	30.127 
02:05	44.3	44.3	44.3	83	39.5	0	0	---	0.00	30.126 
02:10	44.1	44.1	44.1	84	39.6	0	0	---	0.00	30.126 
02:15	43.9	43.9	43.9	84	39.4	0	0	---	0.00	30.128 
02:20	43.8	43.8	43.8	85	39.6	0	0	---	0.00	30.128 
02:25	43.8	43.8	43.8	86	39.9	0	0	---	0.00	30.129 
02:30	43.9	43.9	43.9	87	40.3	0	0	---	0.00	30.132 
02:35	44.1	44.1	44.1	87	40.5	0	0	---	0.00	30.131 
02:40	44.5	44.5	44.5	87	40.9	0	0	---	0.00	30.134 
02:45	44.8	44.8	44.8	86	40.9	0	0	---	0.00	30.139 
02:50	45.2	45.2	45.2	85	41.0	0	0	---	0.00	30.142 
02:55	45.7	45.7	45.7	84	41.1	0	0	---	0.00	30.142 
03:00	46.1	46.1	46.1	83	41.2	0	0	---	0.00	30.142 
03:05	46.2	46.2	46.2	83	41.3	0	0	---	0.00	30.144 
03:10	46.4	46.4	46.4	82	41.2	0	0	---	0.00	30.144 
03:15	46.5	46.5	46.5	82	41.3	0	0	---	0.00	30.147 
03:20	46.7	46.7	46.7	81	41.2	0	0	---	0.00	30.148 
03:25	46.8	46.8	46.8	82	41.6	0	0	---	0.00	30.155 
03:30	47.0	47.0	47.0	81	41.5	0	0	---	0.00	30.159 
03:35	47.1	47.1	47.1	80	41.3	0	0	---	0.00	30.160 
03:40	47.1	47.1	47.1	81	41.6	0	0	---	0.00	30.160 
03:45	47.1	47.1	47.1	81	41.6	0	0	---	0.00	30.164 
03:50	47.0	47.0	47.0	81	41.5	0	0	---	0.00	30.167 
03:55	46.8	46.8	46.8	81	41.3	0	1	315	0.00	30.166 
04:00	46.8	46.8	46.8	81	41.3	0	0	---	0.00	30.168 
04:05	46.7	46.7	46.7	81	41.2	0	0	---	0.00	30.174 
04:10	46.5	46.5	46.5	81	41.0	0	0	---	0.00	30.175 
04:15	46.2	46.2	46.2	81	40.7	0	0	---	0.00	30.176 
04:20	46.0	46.0	46.0	81	40.5	0	0	---	0.00	30.177 
04:25	45.7	45.7	45.7	80	39.9	0	0	---	0.00	30.179 
04:30	45.5	45.5	45.5	79	39.4	0	1	315	0.00	30.179 
04:35	45.5	45.5	45.5	79	39.4	0	1	315	0.00	30.181 
04:40	45.4	45.4	45.4	78	38.9	0	0	---	0.00	30.185 
04:45	45.2	45.2	45.2	78	38.8	0	0	---	0.00	30.184 
04:50	45.1	45.1	45.1	78	38.7	0	1	315	0.00	30.188 
04:55	44.9	44.9	44.9	78	38.5	0	0	---	0.00	30.192 
05:00	44.6	44.6	44.6	78	38.2	0	0	---	0.00	30.193 
05:05	44.5	44.5	44.5	79	38.4	0	0	---	0.00	30.195 
05:10	44.2	44.2	44.2	79	38.1	0	0	---	0.00	30.198 
05:15	44.1	44.1	44.1	80	38.3	0	0	---	0.00	30.199 
05:20	43.8	43.8	43.8	80	38.0	0	0	---	0.00	30.200 
05:25	43.6	43.6	43.6	81	38.2	0	0	---	0.00	30.203 
05:30	43.5	43.5	43.5	81	38.1	0	0	---	0.00	30.206 
05:35	43.2	43.2	43.2	82	38.1	0	0	---	0.00	30.211 
05:40	43.2	43.2	43.2	82	38.1	0	0	---	0.00	30.213 
05:45	43.1	43.1	43.1	82	38.0	0	0	---	0.00	30.213 
05:50	42.9	42.9	42.9	83	38.1	0	0	---	0.00	30.215 
05:55	42.8	42.8	42.8	83	38.0	0	0	---	0.00	30.216 
06:00	42.6	42.6	42.6	84	38.1	0	0	---	0.00	30.218 
06:05	42.3	42.3	42.3	84	37.8	0	0	---	0.00	30.220 
06:10	42.2	42.2	42.2	84	37.7	0	0	---	0.00	30.222 
06:15	41.8	41.8	41.8	85	37.6	0	0	---	0.00	30.226 
06:20	41.6	41.6	41.6	85	37.4	0	0	---	0.00	30.227 
06:25	41.3	41.3	41.3	86	37.4	0	0	---	0.00	30.230 
06:30	41.2	41.2	41.2	87	37.6	0	0	---	0.00	30.234 
06:35	41.1	41.1	41.1	88	37.8	0	0	---	0.00	30.234 
06:40	40.9	40.9	40.9	88	37.6	0	0	---	0.00	30.235 
06:45	40.9	40.9	40.9	89	37.9	0	0	---	0.00	30.236 
06:50	40.9	40.9	40.9	89	37.9	0	0	---	0.00	30.238 
06:55	40.9	40.9	40.9	90	38.2	0	0	---	0.00	30.240 
07:00	41.1	41.1	41.1	90	38.4	0	0	---	0.00	30.240 
07:05	41.5	41.5	41.5	91	39.1	0	0	---	0.00	30.240 
07:10	42.1	42.1	42.1	91	39.7	0	0	---	0.00	30.244 
07:15	43.1	43.1	43.1	89	40.1	0	0	---	0.00	30.245 
07:20	43.8	43.8	43.8	88	40.5	0	0	---	0.00	30.247 
07:25	44.5	44.5	44.5	85	40.3	0	1	315	0.00	30.248 
07:30	45.1	45.1	45.1	83	40.3	0	0	---	0.00	30.248 
07:35	45.5	45.5	45.5	81	40.0	0	1	315	0.00	30.249 
07:40	46.0	46.0	46.0	80	40.2	0	1	315	0.00	30.250 
07:45	46.4	46.4	46.4	78	39.9	0	1	315	0.00	30.252 
07:50	46.5	46.5	46.5	77	39.7	0	3	315	0.00	30.253 
07:55	46.7	46.7	46.7	76	39.5	0	1	292	0.00	30.257 
08:00	47.0	47.0	47.0	77	40.2	0	1	292	0.00	30.259 
08:05	47.3	47.3	47.3	76	40.1	0	2	292	0.00	30.262 
08:10	47.4	47.4	47.4	75	39.9	0	1	292	0.00	30.262 
08:15	47.7	47.7	47.7	73	39.5	0	1	292	0.00	30.261 
08:20	48.0	48.0	48.0	74	40.1	0	1	292	0.00	30.259 
08:25	48.2	48.2	48.2	73	40.0	0	1	292	0.00	30.259 
08:30	48.6	48.6	48.6	72	40.0	0	1	292	0.00	30.261 
08:35	48.8	48.8	48.8	70	39.5	0	3	22	0.00	30.263 
08:40	49.1	49.1	49.1	70	39.7	1	4	112	0.00	30.265 
08:45	49.4	49.4	49.4	67	38.9	1	3	112	0.00	30.266 
08:50	49.8	49.8	49.8	68	39.7	1	3	90	0.00	30.268 
08:55	50.7	50.7	50.7	69	40.9	1	5	112	0.00	30.271 
09:00	51.4	51.4	51.4	65	40.0	0	2	112	0.00	30.274 
09:05	51.6	51.6	51.6	65	40.2	0	2	270	0.00	30.274 
09:10	51.7	51.7	51.7	63	39.5	1	3	270	0.00	30.274 
09:15	52.3	52.3	52.3	65	40.9	0	3	270	0.00	30.275 
09:20	52.6	52.6	52.6	61	39.5	1	3	270	0.00	30.276 
09:25	53.3	53.3	53.3	62	40.6	1	5	135	0.00	30.277 
09:30	54.1	54.1	54.1	59	40.1	0	2	135	0.00	30.275 
09:35	54.4	54.4	54.4	60	40.8	1	4	45	0.00	30.275 
09:40	55.1	55.1	55.1	62	42.3	1	3	90	0.00	30.275 
09:45	55.4	55.4	55.4	58	40.9	1	4	68	0.00	30.276 
09:50	54.8	54.8	54.8	57	39.9	1	4	338	0.00	30.276 
09:55	54.8	54.8	54.8	58	40.3	0	3	45	0.00	30.276 
10:00	54.5	54.5	54.5	54	38.2	1	5	45	0.00	30.277 
10:05	54.2	54.2	54.2	56	38.8	0	2	315	0.00	30.279 
10:10	54.8	54.8	54.8	55	38.9	0	3	338	0.00	30.276 
10:15	55.9	55.9	55.9	56	40.4	1	4	112	0.00	30.276 
10:20	56.6	56.6	56.6	54	40.1	1	3	112	0.00	30.273 
10:25	56.5	56.5	56.5	53	39.6	1	7	90	0.00	30.274 
10:30	55.9	55.9	55.9	53	39.0	1	4	292	0.00	30.275 
10:35	56.2	56.2	56.2	53	39.3	0	2	315	0.00	30.274 
10:40	56.0	56.0	56.0	49	37.1	1	3	315	0.00	30.272 
10:45	55.9	55.9	55.9	50	37.5	1	5	292	0.00	30.267 
10:50	55.9	55.9	55.9	50	37.5	1	4	315	0.00	30.269 
10:55	56.5	56.5	56.5	52	39.1	1	6	270	0.00	30.269 
11:00	56.9	56.9	56.9	52	39.5	1	7	45	0.00	30.266 
11:05	57.3	57.3	57.3	51	39.3	1	5	45	0.00	30.270 
11:10	57.8	57.8	57.8	50	39.3	1	5	45	0.00	30.270 
11:15	57.5	57.5	57.5	46	36.9	1	2	45	0.00	30.271 
11:20	56.5	56.5	56.5	47	36.5	2	4	270	0.00	30.269 
11:25	56.9	56.9	56.9	49	37.9	1	3	270	0.00	30.268 
11:30	56.9	56.9	56.9	49	37.9	1	3	292	0.00	30.265 
11:35	56.6	56.6	56.6	50	38.2	1	4	292	0.00	30.265 
11:40	56.7	56.7	56.7	49	37.8	1	3	338	0.00	30.271 
11:45	56.7	56.7	56.7	50	38.3	0	2	315	0.00	30.270 
11:50	57.8	57.8	57.8	49	38.8	1	3	112	0.00	30.270 
11:55	58.0	58.0	58.0	47	37.9	1	3	45	0.00	30.271 
12:00	58.4	58.4	58.4	50	39.8	0	2	270	0.00	30.270 
12:05	58.6	58.6	58.6	49	39.5	1	3	315	0.00	30.272 
12:10	58.4	58.4	58.4	46	37.7	1	4	90	0.00	30.269 
12:15	57.6	57.6	57.6	44	35.8	0	1	292	0.00	30.272 
12:20	57.2	57.2	57.2	48	37.7	0	1	292	0.00	30.277 
12:25	57.0	57.0	57.0	47	37.0	1	4	248	0.00	30.277 
12:30	56.9	56.9	56.9	49	37.9	0	2	248	0.00	30.276 
12:35	57.8	57.8	57.8	52	40.3	1	3	68	0.00	30.272 
12:40	57.6	57.6	57.6	46	37.0	1	2	0	0.00	30.272 
12:45	57.0	57.0	57.0	48	37.5	0	2	315	0.00	30.278 
12:50	57.5	57.5	57.5	50	39.0	0	1	315	0.00	30.278 
12:55	58.0	58.0	58.0	47	37.9	1	3	292	0.00	30.275 
13:00	57.6	57.6	57.6	47	37.5	1	2	292	0.00	30.274 
13:05	57.5	57.5	57.5	45	36.3	1	3	270	0.00	30.277 
13:10	58.4	58.4	58.4	49	39.3	1	3	270	0.00	30.276 
13:15	59.0	59.0	59.0	48	39.3	1	4	315	0.00	30.271 
13:20	58.7	58.7	58.7	45	37.4	1	3	338	0.00	30.271 
13:25	59.3	59.3	59.3	49	40.1	1	5	292	0.00	30.268 
13:30	59.5	59.5	59.5	46	38.7	2	4	270	0.00	30.266 
13:35	59.5	59.5	59.5	46	38.7	1	5	315	0.00	30.262 
13:40	60.1	60.1	60.1	46	39.2	1	3	315	0.00	30.262 
13:45	59.8	59.8	59.8	45	38.4	0	3	315	0.00	30.260 
13:50	60.1	60.1	60.1	47	39.8	1	2	315	0.00	30.260 
13:55	60.7	60.7	60.7	43	38.1	0	2	292	0.00	30.258 
14:00	59.5	59.5	59.5	43	37.0	1	4	315	0.00	30.261 
14:05	58.9	58.9	58.9	47	38.7	0	2	270	0.00	30.261 
14:10	59.2	59.2	59.2	43	36.7	1	3	315	0.00	30.260 
14:15	58.4	58.4	58.4	42	35.4	1	3	315	0.00	30.260 
14:20	58.4	58.4	58.4	47	38.2	1	3	315	0.00	30.256 
14:25	59.2	59.2	59.2	42	36.1	1	4	292	0.00	30.254 
14:30	59.6	59.6	59.6	43	37.1	1	3	292	0.00	30.251 
14:35	60.4	60.4	60.4	43	37.8	1	4	292	0.00	30.247 
14:40	59.9	59.9	59.9	44	37.9	1	4	270	0.00	30.246 
14:45	59.8	59.8	59.8	45	38.4	0	3	315	0.00	30.244 
14:50	59.2	59.2	59.2	47	39.0	0	2	292	0.00	30.246 
14:55	58.6	58.6	58.6	47	38.4	0	3	0	0.00	30.245 
15:00	59.0	59.0	59.0	50	40.4	0	1	315	0.00	30.243 
15:05	59.9	59.9	59.9	46	39.1	1	4	22	0.00	30.239 
15:10	60.1	60.1	60.1	42	36.9	2	6	90	0.00	30.233 
15:15	59.5	59.5	59.5	45	38.1	0	1	90	0.00	30.239 
15:20	58.9	58.9	58.9	45	37.6	0	1	90	0.00	30.236 
15:25	58.0	58.0	58.0	46	37.3	1	2	315	0.00	30.238 
15:30	57.3	57.3	57.3	48	37.8	0	3	292	0.00	30.238 
15:35	57.5	57.5	57.5	46	36.9	0	2	315	0.00	30.238 
15:40	57.6	57.6	57.6	46	37.0	1	2	292	0.00	30.235 
15:45	58.1	58.1	58.1	48	38.5	0	2	270	0.00	30.232 
15:50	58.7	58.7	58.7	44	36.8	1	3	292	0.00	30.229 
15:55	59.2	59.2	59.2	47	39.0	0	1	248	0.00	30.229 
16:00	59.3	59.3	59.3	46	38.5	1	2	248	0.00	30.228 
16:05	59.2	59.2	59.2	47	39.0	1	2	315	0.00	30.230 
16:10	59.0	59.0	59.0	49	39.9	0	2	315	0.00	30.231 
16:15	58.9	58.9	58.9	46	38.2	0	2	338	0.00	30.229 
16:20	58.4	58.4	58.4	49	39.3	0	2	338	0.00	30.229 
16:25	58.0	58.0	58.0	46	37.3	1	4	338	0.00	30.230 
16:30	57.6	57.6	57.6	49	38.6	0	4	270	0.00	30.230 
16:35	57.5	57.5	57.5	50	39.0	0	1	270	0.00	30.230 
16:40	57.0	57.0	57.0	48	37.5	0	2	292	0.00	30.230 
16:45	57.0	57.0	57.0	48	37.5	0	1	292	0.00	30.230 
16:50	57.2	57.2	57.2	50	38.7	0	1	292	0.00	30.229 
16:55	57.5	57.5	57.5	45	36.3	0	1	292	0.00	30.228 
17:00	58.0	58.0	58.0	48	38.4	0	1	292	0.00	30.228 
17:05	58.4	58.4	58.4	47	38.2	0	1	292	0.00	30.229 
17:10	58.7	58.7	58.7	47	38.5	1	3	270	0.00	30.228 
17:15	58.9	58.9	58.9	46	38.2	0	1	270	0.00	30.227 
17:20	58.7	58.7	58.7	43	36.3	0	2	270	0.00	30.228 
17:25	58.4	58.4	58.4	45	37.1	0	2	270	0.00	30.229 
17:30	58.3	58.3	58.3	46	37.6	0	2	338	0.00	30.231 
17:35	58.1	58.1	58.1	44	36.3	1	3	338	0.00	30.230 
17:40	58.0	58.0	58.0	46	37.3	0	2	315	0.00	30.230 
17:45	58.0	58.0	58.0	48	38.4	1	2	292	0.00	30.231 
17:50	57.8	57.8	57.8	48	38.2	0	2	292	0.00	30.230 
17:55	57.6	57.6	57.6	48	38.1	0	1	292	0.00	30.229 
18:00	57.3	57.3	57.3	48	37.8	0	2	292	0.00	30.228 
18:05	57.0	57.0	57.0	48	37.5	0	2	292	0.00	30.228 
18:10	56.7	56.7	56.7	49	37.8	0	1	292	0.00	30.224 
18:15	56.5	56.5	56.5	49	37.6	0	1	292	0.00	30.225 
18:20	56.3	56.3	56.3	52	38.9	0	0	---	0.00	30.224 
18:25	56.0	56.0	56.0	52	38.6	0	0	---	0.00	30.223 
18:30	55.6	55.6	55.6	54	39.2	0	0	---	0.00	30.223 
18:35	55.1	55.1	55.1	57	40.1	0	0	---	0.00	30.223 
18:40	54.5	54.5	54.5	58	40.0	0	0	---	0.00	30.223 
18:45	53.9	53.9	53.9	59	39.9	0	0	---	0.00	30.224 
18:50	53.5	53.5	53.5	61	40.4	0	0	---	0.00	30.223 
18:55	52.9	52.9	52.9	62	40.2	0	0	---	0.00	30.221 
19:00	52.5	52.5	52.5	65	41.1	0	0	---	0.00	30.221 
19:05	51.9	51.9	51.9	65	40.5	0	0	---	0.00	30.218 
19:10	51.4	51.4	51.4	67	40.8	0	0	---	0.00	30.218 
19:15	51.0	51.0	51.0	69	41.2	0	0	---	0.00	30.219 
19:20	50.5	50.5	50.5	71	41.5	0	0	---	0.00	30.219 
19:25	50.1	50.1	50.1	73	41.8	0	0	---	0.00	30.221 
19:30	49.6	49.6	49.6	74	41.7	0	0	---	0.00	30.222 
19:35	49.2	49.2	49.2	76	42.0	0	0	---	0.00	30.222 
19:40	48.9	48.9	48.9	77	42.0	0	0	---	0.00	30.222 
19:45	48.6	48.6	48.6	78	42.1	0	0	---	0.00	30.224 
19:50	48.3	48.3	48.3	78	41.8	0	0	---	0.00	30.223 
19:55	48.2	48.2	48.2	79	42.0	0	0	---	0.00	30.228 
20:00	47.9	47.9	47.9	80	42.0	0	0	---	0.00	30.231 
20:05	47.6	47.6	47.6	81	42.1	0	0	---	0.00	30.228 
20:10	47.4	47.4	47.4	81	41.9	0	0	---	0.00	30.229 
20:15	47.1	47.1	47.1	82	41.9	0	0	---	0.00	30.230 
20:20	47.0	47.0	47.0	83	42.1	0	0	---	0.00	30.230 
20:25	46.7	46.7	46.7	84	42.1	0	0	---	0.00	30.231 
20:30	46.4	46.4	46.4	84	41.8	0	0	---	0.00	30.231 
20:35	46.2	46.2	46.2	85	41.9	0	0	---	0.00	30.234 
20:40	46.0	46.0	46.0	85	41.7	0	0	---	0.00	30.235 
20:45	45.7	45.7	45.7	85	41.5	0	0	---	0.00	30.235 
20:50	45.5	45.5	45.5	86	41.6	0	0	---	0.00	30.235 
20:55	45.4	45.4	45.4	86	41.5	0	0	---	0.00	30.236 
21:00	45.2	45.2	45.2	87	41.6	0	0	---	0.00	30.237 
21:05	45.1	45.1	45.1	87	41.5	0	0	---	0.00	30.233 
21:10	44.9	44.9	44.9	87	41.3	0	0	---	0.00	30.233 
21:15	44.8	44.8	44.8	88	41.5	0	0	---	0.00	30.233 
21:20	44.6	44.6	44.6	88	41.3	0	0	---	0.00	30.233 
21:25	44.5	44.5	44.5	88	41.2	0	0	---	0.00	30.233 
21:30	44.2	44.2	44.2	88	40.9	0	0	---	0.00	30.235 
21:35	44.2	44.2	44.2	89	41.2	0	0	---	0.00	30.235 
21:40	44.1	44.1	44.1	90	41.4	0	0	---	0.00	30.235 
21:45	43.9	43.9	43.9	90	41.2	0	0	---	0.00	30.235 
21:50	43.8	43.8	43.8	90	41.1	0	0	---	0.00	30.236 
21:55	43.6	43.6	43.6	91	41.1	0	0	---	0.00	30.236 
22:00	43.5	43.5	43.5	91	41.0	0	0	---	0.00	30.235 
22:05	43.3	43.3	43.3	91	40.9	0	0	---	0.00	30.233 
22:10	43.2	43.2	43.2	91	40.8	0	0	---	0.00	30.233 
22:15	43.2	43.2	43.2	92	41.0	0	0	---	0.00	30.233 
22:20	43.1	43.1	43.1	92	40.9	0	0	---	0.00	30.234 
22:25	42.9	42.9	42.9	92	40.7	0	0	---	0.00	30.235 
22:30	42.8	42.8	42.8	92	40.6	0	0	---	0.00	30.237 
22:35	42.8	42.8	42.8	92	40.6	0	0	---	0.00	30.235 
22:40	42.6	42.6	42.6	92	40.4	0	0	---	0.00	30.234 
22:45	42.5	42.5	42.5	92	40.3	0	0	---	0.00	30.236 
22:50	42.5	42.5	42.5	93	40.6	0	0	---	0.00	30.234 
22:55	42.3	42.3	42.3	93	40.4	0	0	---	0.00	30.235 
23:00	42.2	42.2	42.2	93	40.3	0	0	---	0.00	30.235 
23:05	42.1	42.1	42.1	93	40.2	0	0	---	0.00	30.234 
23:10	41.9	41.9	41.9	93	40.0	0	0	---	0.00	30.236 
23:15	41.8	41.8	41.8	93	39.9	0	0	---	0.00	30.235 
23:20	41.8	41.8	41.8	93	39.9	0	0	---	0.00	30.234 
23:25	41.6	41.6	41.6	93	39.7	0	0	---	0.00	30.234 
23:30	41.6	41.6	41.6	94	40.0	0	0	---	0.00	30.234 
23:35	41.6	41.6	41.6	94	40.0	0	0	---	0.00	30.235 
23:40	41.6	41.6	41.6	94	40.0	0	0	---	0.00	30.235 
23:45	41.5	41.5	41.5	94	39.9	0	0	---	0.00	30.235 
23:50	41.3	41.3	41.3	94	39.7	0	0	---	0.00	30.237 
23:55	41.2	41.2	41.2	94	39.6	0	0	---	0.00	30.235 

CoCoRaHS
IN-AL-39
A2 Web Hosting
Creative Commons License
GoDaddy
Look for:

loaded 2017-12-13 09:59:44 • last modified 2010-11-18 10:43:29
Privacy PolicyDisclaimer
• wx.awcolley.com is powered by PmWiki v.2002016 •
• all content (unless otherwise noted) © 2017 A W Colley